Time;durP1;ratioP1;P1;durP2;ratioP2;P2;SDS_P1;SDS_P2;PMS_P1;PMS_P2;Temp;Humidity;BMP_temperature;BMP_pressure;BME280_temperature;BME280_humidity;BME280_pressure;Samples;Min_cycle;Max_cycle;Signal;HPM_P1;HPM_P2
2023/05/29 00:01:12;;;;;;;16.25;5.32;;;;;;;12.06;100.00;102197.50;5087783;28;20063;-72
2023/05/29 00:03:37;;;;;;;19.67;6.03;;;;;;;11.98;100.00;102201.03;5089066;28;20495;-72
2023/05/29 00:06:03;;;;;;;11.30;3.90;;;;;;;11.95;100.00;102201.38;5089005;28;20028;-72
2023/05/29 00:08:28;;;;;;;16.90;5.70;;;;;;;11.89;100.00;102210.06;5089038;28;20032;-72
2023/05/29 00:10:54;;;;;;;12.65;4.05;;;;;;;11.86;100.00;102218.44;5087443;28;20055;-72
2023/05/29 00:13:19;;;;;;;12.50;4.40;;;;;;;11.73;100.00;102202.91;5088735;28;20032;-72
2023/05/29 00:15:45;;;;;;;17.42;5.90;;;;;;;11.76;100.00;102210.59;5088476;28;20040;-72
2023/05/29 00:18:11;;;;;;;7.97;2.95;;;;;;;11.71;100.00;102220.97;5089097;28;20055;-73
2023/05/29 00:20:37;;;;;;;12.68;4.75;;;;;;;11.66;100.00;102217.13;5089041;28;20699;-72
2023/05/29 00:23:04;;;;;;;13.70;3.38;;;;;;;11.61;100.00;102217.66;5088944;28;20105;-72
2023/05/29 00:25:29;;;;;;;12.18;3.05;;;;;;;11.54;100.00;102214.81;5088914;28;20463;-72
2023/05/29 00:27:55;;;;;;;15.35;3.63;;;;;;;11.49;100.00;102214.47;5088861;28;20047;-72
2023/05/29 00:30:20;;;;;;;10.52;2.78;;;;;;;11.50;99.59;102216.16;5088896;28;20024;-73
2023/05/29 00:32:45;;;;;;;14.02;3.58;;;;;;;11.38;100.00;102214.84;5088760;28;20032;-72
2023/05/29 00:35:11;;;;;;;9.13;3.22;;;;;;;11.39;100.00;102221.84;5087558;28;20032;-72
2023/05/29 00:37:36;;;;;;;11.95;3.20;;;;;;;11.33;100.00;102215.34;5088730;28;20028;-72
2023/05/29 00:40:03;;;;;;;7.50;2.45;;;;;;;11.28;99.23;102216.84;5088690;28;20062;-72
2023/05/29 00:42:28;;;;;;;17.77;3.85;;;;;;;11.23;99.27;102220.00;5087464;28;20023;-72
2023/05/29 00:44:53;;;;;;;9.55;3.40;;;;;;;11.23;98.73;102225.34;5088683;28;20036;-72
2023/05/29 00:47:19;;;;;;;17.90;3.85;;;;;;;11.23;97.43;102229.84;5088664;28;20048;-72
2023/05/29 00:49:44;;;;;;;12.75;3.65;;;;;;;11.07;97.87;102222.69;5088924;28;20036;-72
2023/05/29 00:52:11;;;;;;;12.90;4.15;;;;;;;11.09;97.88;102239.38;5088490;28;20052;-72
2023/05/29 00:54:37;;;;;;;10.02;3.10;;;;;;;11.06;97.70;102251.22;5088620;28;20063;-73
2023/05/29 00:57:04;;;;;;;14.30;4.53;;;;;;;11.04;96.66;102253.22;5087269;28;20059;-72
2023/05/29 00:59:32;;;;;;;11.23;3.35;;;;;;;10.92;97.44;102234.00;5088546;28;20064;-72
2023/05/29 01:01:59;;;;;;;16.30;4.13;;;;;;;10.91;97.86;102252.88;5088612;28;20052;-72
2023/05/29 01:04:26;;;;;;;13.13;3.88;;;;;;;10.86;96.48;102249.84;5088474;28;20073;-73
2023/05/29 01:06:51;;;;;;;9.95;3.40;;;;;;;10.85;96.22;102254.34;5088437;28;20471;-72
2023/05/29 01:09:17;;;;;;;12.32;3.28;;;;;;;10.77;95.93;102257.00;5088272;28;20058;-72
2023/05/29 01:11:56;;;;;;;11.38;3.70;;;;;;;10.79;95.83;102254.16;5088366;28;20039;-72
2023/05/29 01:14:33;;;;;;;9.95;2.92;;;;;;;10.72;95.62;102256.66;5088420;28;20028;-72
2023/05/29 01:17:20;;;;;;;10.02;3.13;;;;;;;10.69;95.12;102262.34;5088254;28;20036;-72
2023/05/29 01:20:22;;;;;;;17.63;3.80;;;;;;;10.66;94.95;102257.28;5088467;28;20574;-72
2023/05/29 01:23:06;;;;;;;8.98;2.67;;;;;;;10.60;94.96;102256.13;5087948;28;20027;-72
2023/05/29 01:26:08;;;;;;;10.13;2.75;;;;;;;10.63;94.75;102263.78;5087960;28;20023;-71
2023/05/29 01:28:48;;;;;;;9.55;2.75;;;;;;;10.52;95.07;102256.91;5090279;28;20067;-72
2023/05/29 01:31:19;;;;;;;15.35;3.35;;;;;;;10.46;95.66;102249.56;5091757;28;20121;-72
2023/05/29 01:33:52;;;;;;;14.65;2.78;;;;;;;10.46;95.50;102256.75;5091804;28;20028;-72
2023/05/29 01:36:17;;;;;;;10.23;3.10;;;;;;;10.40;94.94;102260.91;5091682;28;20143;-72
2023/05/29 01:38:42;;;;;;;6.93;2.30;;;;;;;10.42;95.14;102260.72;5073566;28;20115;-72
2023/05/29 01:41:08;;;;;;;13.18;2.63;;;;;;;10.41;95.08;102270.56;5091730;28;20080;-72
2023/05/29 01:43:34;;;;;;;8.15;2.60;;;;;;;10.27;95.58;102264.00;5091652;28;20498;-72
2023/05/29 01:46:00;;;;;;;9.45;3.38;;;;;;;10.32;95.54;102268.84;5091852;28;20141;-73
2023/05/29 01:48:26;;;;;;;10.43;3.60;;;;;;;10.24;95.80;102255.44;5089809;28;20085;-72
2023/05/29 01:50:52;;;;;;;11.30;4.30;;;;;;;10.23;96.32;102261.78;5090094;28;20460;-72
2023/05/29 01:53:18;;;;;;;8.55;2.25;;;;;;;10.19;96.46;102263.09;5089941;28;20056;-72
2023/05/29 01:55:43;;;;;;;8.80;2.85;;;;;;;10.19;96.40;102257.75;5091526;28;20032;-72
2023/05/29 01:58:11;;;;;;;8.88;3.50;;;;;;;10.15;96.80;102248.41;5073563;28;20051;-72
2023/05/29 02:00:36;;;;;;;11.93;2.78;;;;;;;10.13;97.15;102261.06;5091349;28;20039;-72
2023/05/29 02:03:02;;;;;;;11.32;2.28;;;;;;;10.06;96.95;102252.84;5091322;28;20450;-73
2023/05/29 02:05:27;;;;;;;12.90;2.85;;;;;;;10.12;96.87;102257.56;5091309;28;20044;-72
2023/05/29 02:07:52;;;;;;;12.52;3.58;;;;;;;10.12;96.66;102264.75;5091109;28;20543;-72
2023/05/29 02:10:18;;;;;;;10.25;3.25;;;;;;;10.06;97.27;102256.38;5091180;28;20043;-72
2023/05/29 02:12:43;;;;;;;15.68;3.35;;;;;;;10.02;96.96;102251.50;5091032;28;20059;-72
2023/05/29 02:15:09;;;;;;;14.77;2.70;;;;;;;10.01;97.50;102258.69;5089909;28;20032;-73
2023/05/29 02:17:34;;;;;;;9.88;2.83;;;;;;;9.98;97.91;102255.47;5090982;28;20420;-72
2023/05/29 02:20:01;;;;;;;15.00;2.92;;;;;;;9.94;98.38;102257.63;5091422;28;20024;-72
2023/05/29 02:22:27;;;;;;;7.95;2.60;;;;;;;9.94;97.99;102265.63;5091020;28;20020;-72
2023/05/29 02:24:52;;;;;;;19.35;4.93;;;;;;;9.92;98.25;102253.44;5090841;28;20111;-72
2023/05/29 02:27:18;;;;;;;10.02;2.42;;;;;;;9.82;98.35;102262.41;5090888;28;20131;-72
2023/05/29 02:29:43;;;;;;;9.13;2.30;;;;;;;9.88;98.38;102266.28;5089617;28;20036;-72
2023/05/29 02:32:09;;;;;;;8.18;2.80;;;;;;;9.83;98.73;102268.56;5090662;28;20570;-72
2023/05/29 02:34:34;;;;;;;10.80;2.78;;;;;;;9.76;98.75;102263.00;5089337;28;20035;-71
2023/05/29 02:36:59;;;;;;;10.77;2.20;;;;;;;9.78;99.29;102268.19;5089198;28;20546;-72
2023/05/29 02:39:25;;;;;;;11.48;2.90;;;;;;;9.77;98.75;102280.69;5090321;28;20115;-72
2023/05/29 02:41:50;;;;;;;7.25;2.20;;;;;;;9.72;100.00;102280.31;5090604;28;20371;-72
2023/05/29 02:44:15;;;;;;;17.33;3.95;;;;;;;9.70;99.83;102274.31;5090388;28;20024;-72
2023/05/29 02:46:41;;;;;;;13.07;2.47;;;;;;;9.70;99.55;102284.13;5090412;28;20062;-72
2023/05/29 02:49:06;;;;;;;11.15;3.28;;;;;;;9.65;99.61;102277.44;5090417;28;20375;-72
2023/05/29 02:51:32;;;;;;;6.03;2.28;;;;;;;9.59;100.00;102278.06;5090052;28;20121;-72
2023/05/29 02:53:58;;;;;;;16.92;3.38;;;;;;;9.62;100.00;102285.72;5089122;28;20115;-72
2023/05/29 02:56:25;;;;;;;6.55;2.10;;;;;;;9.60;100.00;102286.88;5090221;28;20063;-72
2023/05/29 02:58:51;;;;;;;14.77;4.43;;;;;;;9.50;100.00;102275.47;5090292;28;20048;-71
2023/05/29 03:01:17;;;;;;;13.55;2.85;;;;;;;9.55;100.00;102282.00;5090265;28;20074;-72
2023/05/29 03:03:42;;;;;;;11.25;2.58;;;;;;;9.50;100.00;102288.78;5089825;28;20036;-72
2023/05/29 03:06:07;;;;;;;10.55;3.15;;;;;;;9.50;100.00;102299.44;5090109;28;20074;-72
2023/05/29 03:08:34;;;;;;;11.45;3.75;;;;;;;9.47;100.00;102275.78;5088590;28;20043;-72
2023/05/29 03:10:59;;;;;;;13.93;2.70;;;;;;;9.46;100.00;102285.63;5090201;28;20036;-72
2023/05/29 03:13:25;;;;;;;10.10;3.08;;;;;;;9.43;100.00;102281.44;5089774;28;20093;-72
2023/05/29 03:15:50;;;;;;;7.85;2.88;;;;;;;9.41;100.00;102278.06;5088609;28;20035;-72
2023/05/29 03:18:16;;;;;;;15.15;3.38;;;;;;;9.37;100.00;102286.53;5089980;28;20432;-72
2023/05/29 03:20:41;;;;;;;13.80;3.10;;;;;;;9.38;100.00;102286.38;5089755;28;20593;-72
2023/05/29 03:23:07;;;;;;;11.23;3.58;;;;;;;9.37;100.00;102283.84;5089805;28;20034;-72
2023/05/29 03:25:32;;;;;;;8.10;2.38;;;;;;;9.35;100.00;102281.38;5089756;28;20063;-72
2023/05/29 03:27:57;;;;;;;9.18;2.60;;;;;;;9.32;100.00;102278.16;5089766;28;20403;-73
2023/05/29 03:30:23;;;;;;;7.72;2.90;;;;;;;9.33;100.00;102290.50;5089586;28;20028;-72
2023/05/29 03:32:48;;;;;;;14.10;5.07;;;;;;;9.31;100.00;102290.63;5089503;28;20068;-72
2023/05/29 03:35:13;;;;;;;14.68;4.03;;;;;;;9.29;100.00;102292.59;5089502;28;20024;-71
2023/05/29 03:37:39;;;;;;;10.77;4.18;;;;;;;9.25;100.00;102295.72;5089647;28;20044;-71
2023/05/29 03:40:05;;;;;;;9.50;3.30;;;;;;;9.22;100.00;102291.53;5089503;28;20558;-72
2023/05/29 03:42:31;;;;;;;10.38;2.65;;;;;;;9.25;100.00;102293.06;5089493;28;20031;-72
2023/05/29 03:44:56;;;;;;;16.42;2.70;;;;;;;9.21;100.00;102282.72;5089421;28;20479;-72
2023/05/29 03:47:22;;;;;;;15.90;4.80;;;;;;;9.28;100.00;102301.59;5087945;28;20073;-72
2023/05/29 03:49:47;;;;;;;10.98;2.53;;;;;;;9.28;100.00;102298.94;5087126;28;20028;-72
2023/05/29 03:52:13;;;;;;;11.20;4.35;;;;;;;9.31;100.00;102295.13;5088988;28;20052;-72
2023/05/29 03:54:38;;;;;;;12.93;3.63;;;;;;;9.26;100.00;102295.56;5071060;28;20551;-72
2023/05/29 03:57:05;;;;;;;25.75;3.25;;;;;;;9.30;100.00;102299.63;5089136;28;20028;-72
2023/05/29 03:59:30;;;;;;;11.68;4.57;;;;;;;9.27;100.00;102305.22;5089351;28;20375;-72
2023/05/29 04:01:55;;;;;;;9.07;2.78;;;;;;;9.24;100.00;102294.06;5087983;28;20051;-72
2023/05/29 04:04:21;;;;;;;18.25;4.47;;;;;;;9.29;100.00;102316.56;5089086;28;20094;-72
2023/05/29 04:06:46;;;;;;;16.77;3.55;;;;;;;9.30;100.00;102314.72;5089098;28;20085;-72
2023/05/29 04:09:11;;;;;;;11.70;3.53;;;;;;;9.34;100.00;102316.13;5089132;28;20031;-72
2023/05/29 04:11:38;;;;;;;11.27;2.67;;;;;;;9.33;100.00;102320.63;5089040;28;20043;-72
2023/05/29 04:14:03;;;;;;;11.23;3.03;;;;;;;9.34;100.00;102324.09;5087775;28;20043;-72
2023/05/29 04:16:29;;;;;;;16.60;4.40;;;;;;;9.36;100.00;102322.13;5089037;28;20047;-72
2023/05/29 04:18:55;;;;;;;12.68;3.63;;;;;;;9.35;100.00;102323.97;5087487;28;20077;-72
2023/05/29 04:21:21;;;;;;;15.45;5.22;;;;;;;9.36;100.00;102322.13;5088885;28;20039;-73
2023/05/29 04:23:46;;;;;;;12.70;3.03;;;;;;;9.40;100.00;102326.16;5088931;28;20024;-72
2023/05/29 04:26:12;;;;;;;10.48;3.40;;;;;;;9.42;100.00;102333.00;5088978;28;20443;-72
2023/05/29 04:28:38;;;;;;;12.85;3.25;;;;;;;9.44;100.00;102319.53;5088960;28;20135;-72
2023/05/29 04:31:04;;;;;;;10.15;2.60;;;;;;;9.47;100.00;102329.06;5088766;28;20114;-72
2023/05/29 04:33:30;;;;;;;8.23;2.92;;;;;;;9.46;100.00;102319.38;5088643;28;20086;-72
2023/05/29 04:35:55;;;;;;;14.57;3.65;;;;;;;9.49;100.00;102335.06;5088883;28;20028;-72
2023/05/29 04:38:24;;;;;;;10.90;2.67;;;;;;;9.52;100.00;102340.09;5088995;28;20050;-72
2023/05/29 04:40:51;;;;;;;10.98;2.40;;;;;;;9.54;100.00;102328.28;5088906;28;20034;-72
2023/05/29 04:43:16;;;;;;;14.73;2.80;;;;;;;9.56;100.00;102336.97;5088788;28;20028;-72
2023/05/29 04:45:42;;;;;;;9.23;2.40;;;;;;;9.53;100.00;102339.91;5089218;28;21297;-72
2023/05/29 04:48:08;;;;;;;10.68;3.95;;;;;;;9.58;100.00;102334.97;5087312;28;20032;-72
2023/05/29 04:50:34;;;;;;;19.70;5.25;;;;;;;9.60;100.00;102340.97;5089122;28;20059;-73
2023/05/29 04:52:59;;;;;;;14.98;3.03;;;;;;;9.66;100.00;102335.03;5088422;28;20388;-72
2023/05/29 04:55:25;;;;;;;11.88;2.05;;;;;;;9.66;100.00;102332.38;5088607;28;20036;-72
2023/05/29 04:57:51;;;;;;;19.65;3.97;;;;;;;9.71;100.00;102339.91;5088603;28;20613;-72
2023/05/29 05:00:18;;;;;;;9.38;2.22;;;;;;;9.76;100.00;102334.94;5088473;28;20024;-72
2023/05/29 05:02:43;;;;;;;17.50;3.70;;;;;;;9.82;100.00;102338.81;5092466;28;20031;-72
2023/05/29 05:05:09;;;;;;;11.88;2.35;;;;;;;9.88;99.47;102324.91;5092698;28;20182;-72
2023/05/29 05:07:35;;;;;;;23.13;3.65;;;;;;;9.96;98.90;102338.28;5092645;28;20035;-72
2023/05/29 05:10:01;;;;;;;13.32;3.28;;;;;;;9.98;99.14;102328.31;5091271;28;20036;-72
2023/05/29 05:12:27;;;;;;;18.20;4.15;;;;;;;10.02;99.11;102342.97;5092258;28;20034;-72
2023/05/29 05:14:52;;;;;;;17.48;3.45;;;;;;;10.01;99.18;102335.16;5092537;28;20424;-72
2023/05/29 05:17:17;;;;;;;11.02;2.55;;;;;;;10.07;98.87;102343.34;5091108;28;20059;-72
2023/05/29 05:19:43;;;;;;;10.93;3.67;;;;;;;10.14;98.52;102353.38;5092600;28;20028;-72
2023/05/29 05:22:08;;;;;;;10.35;3.40;;;;;;;10.10;98.42;102361.69;5092290;28;20060;-72
2023/05/29 05:24:34;;;;;;;11.15;2.70;;;;;;;10.13;98.75;102359.69;5092195;28;20078;-72
2023/05/29 05:27:00;;;;;;;15.52;4.30;;;;;;;10.13;98.73;102357.88;5092371;28;20596;-72
2023/05/29 05:29:25;;;;;;;13.45;2.70;;;;;;;10.20;98.34;102366.91;5091970;28;20032;-72
2023/05/29 05:31:51;;;;;;;12.68;2.72;;;;;;;10.24;97.96;102356.75;5092072;28;20035;-72
2023/05/29 05:34:16;;;;;;;10.88;2.97;;;;;;;10.22;98.50;102359.59;5090644;28;20463;-72
2023/05/29 05:36:42;;;;;;;16.58;3.47;;;;;;;10.36;98.17;102366.22;5092021;28;20390;-72
2023/05/29 05:39:08;;;;;;;11.27;3.05;;;;;;;10.42;97.25;102370.91;5091864;28;20436;-72
2023/05/29 05:41:33;;;;;;;13.13;3.75;;;;;;;10.48;96.65;102366.78;5091948;28;20114;-72
2023/05/29 05:43:58;;;;;;;20.85;3.63;;;;;;;10.45;95.71;102369.75;5090721;28;20454;-72
2023/05/29 05:46:24;;;;;;;12.88;3.05;;;;;;;10.41;96.00;102374.59;5090482;28;20568;-72
2023/05/29 05:48:50;;;;;;;14.00;5.88;;;;;;;10.42;95.85;102362.91;5091701;28;20032;-72
2023/05/29 05:51:15;;;;;;;13.48;5.43;;;;;;;10.42;95.48;102364.75;5090053;28;20051;-72
2023/05/29 05:53:41;;;;;;;16.40;3.90;;;;;;;10.48;95.75;102367.63;5091680;28;20028;-72
2023/05/29 05:56:06;;;;;;;9.35;3.47;;;;;;;10.51;94.63;102359.31;5090462;28;20434;-72
2023/05/29 05:58:31;;;;;;;17.98;3.63;;;;;;;10.54;95.35;102350.16;5090252;28;20036;-73
2023/05/29 06:00:58;;;;;;;12.85;2.47;;;;;;;10.78;92.91;102356.59;5091360;28;20028;-72
2023/05/29 06:03:23;;;;;;;10.02;2.60;;;;;;;11.03;91.79;102358.34;5091556;28;20042;-72
2023/05/29 06:05:50;;;;;;;17.38;3.53;;;;;;;11.03;91.63;102349.47;5091379;28;20039;-72
2023/05/29 06:08:15;;;;;;;19.20;3.58;;;;;;;11.06;92.45;102357.19;5091443;28;20024;-72
2023/05/29 06:10:41;;;;;;;14.77;2.45;;;;;;;11.10;90.37;102364.69;5091306;28;20088;-72
2023/05/29 06:13:06;;;;;;;8.48;3.30;;;;;;;11.07;90.89;102375.69;5090197;28;20020;-70
2023/05/29 06:15:31;;;;;;;10.20;2.40;;;;;;;11.00;91.20;102363.16;5091459;28;20040;-72
2023/05/29 06:17:57;;;;;;;8.90;2.28;;;;;;;11.00;90.72;102373.84;5091211;28;20456;-71
2023/05/29 06:20:23;;;;;;;8.88;2.97;;;;;;;11.03;89.64;102379.72;5089446;28;20078;-71
2023/05/29 06:22:50;;;;;;;16.63;3.33;;;;;;;11.01;89.68;102386.22;5091237;28;20024;-71
2023/05/29 06:25:18;;;;;;;11.05;2.88;;;;;;;11.03;88.92;102389.53;5089755;28;20432;-72
2023/05/29 06:27:44;;;;;;;14.32;4.40;;;;;;;11.02;88.99;102383.34;5090953;28;20040;-72
2023/05/29 06:30:10;;;;;;;14.40;3.35;;;;;;;11.09;89.70;102380.88;5090751;28;20039;-69
2023/05/29 06:32:35;;;;;;;11.27;2.67;;;;;;;11.13;88.96;102387.56;5091231;28;20028;-72
2023/05/29 06:35:01;;;;;;;11.70;2.67;;;;;;;11.22;88.35;102393.78;5090674;28;20051;-71
2023/05/29 06:37:26;;;;;;;12.98;3.47;;;;;;;11.16;86.98;102381.88;5091366;28;20073;-79
2023/05/29 06:39:51;;;;;;;10.10;2.67;;;;;;;11.21;87.96;102382.25;5089438;28;20485;-70
2023/05/29 06:42:17;;;;;;;11.68;3.33;;;;;;;11.28;86.97;102390.44;5089339;28;20063;-70
2023/05/29 06:44:42;;;;;;;13.40;3.22;;;;;;;11.22;87.40;102385.78;5090677;28;20027;-70
2023/05/29 06:47:07;;;;;;;12.60;2.50;;;;;;;11.18;86.91;102371.88;5090569;28;20467;-69
2023/05/29 06:49:33;;;;;;;11.45;2.50;;;;;;;11.34;87.93;102392.44;5089246;28;20039;-70
2023/05/29 06:51:58;;;;;;;8.05;2.53;;;;;;;11.42;86.87;102392.47;5087185;28;20056;-68
2023/05/29 06:54:24;;;;;;;8.88;2.47;;;;;;;11.39;86.33;102377.59;5083720;28;20040;-67
2023/05/29 06:56:49;;;;;;;15.30;2.40;;;;;;;11.36;85.75;102385.13;5083265;28;20102;-72
2023/05/29 06:59:15;;;;;;;7.88;2.70;;;;;;;11.36;87.60;102382.44;5083992;28;20051;-67
2023/05/29 07:01:40;;;;;;;11.20;2.80;;;;;;;11.48;85.13;102394.50;5083799;28;20028;-69
2023/05/29 07:04:06;;;;;;;8.20;2.00;;;;;;;11.38;85.22;102385.78;5083896;28;20070;-71
2023/05/29 07:06:33;;;;;;;8.95;2.10;;;;;;;11.45;86.03;102396.66;5084128;28;20503;-69
2023/05/29 07:08:58;;;;;;;10.00;2.92;;;;;;;11.41;85.33;102374.78;5083576;28;20024;-71
2023/05/29 07:11:25;;;;;;;10.90;2.70;;;;;;;11.61;85.08;102391.34;5081066;28;20459;-72
2023/05/29 07:13:50;;;;;;;8.57;2.53;;;;;;;11.72;83.29;102395.53;5083900;28;20039;-75
2023/05/29 07:16:18;;;;;;;15.70;3.95;;;;;;;11.78;82.95;102401.03;5083789;28;20064;-71
2023/05/29 07:18:43;;;;;;;8.45;1.75;;;;;;;11.80;83.25;102398.22;5083013;28;20036;-70
2023/05/29 07:21:10;;;;;;;12.43;3.17;;;;;;;11.86;81.72;102397.56;5083923;28;21319;-75
2023/05/29 07:23:35;;;;;;;9.95;2.63;;;;;;;11.87;81.56;102398.38;5083039;28;20071;-70
2023/05/29 07:26:00;;;;;;;14.43;2.55;;;;;;;11.89;80.69;102404.41;5082078;28;20083;-69
2023/05/29 07:28:26;;;;;;;11.77;2.63;;;;;;;11.91;81.55;102399.75;5083882;28;20085;-70
2023/05/29 07:30:51;;;;;;;8.95;2.58;;;;;;;11.96;82.18;102392.88;5083766;28;20039;-70
2023/05/29 07:33:16;;;;;;;7.20;1.95;;;;;;;12.13;80.87;102408.91;5083140;28;20428;-70
2023/05/29 07:35:42;;;;;;;5.50;1.88;;;;;;;12.26;80.41;102402.06;5083484;28;20055;-71
2023/05/29 07:38:07;;;;;;;9.18;1.70;;;;;;;12.24;77.59;102405.91;5083257;28;21055;-70
2023/05/29 07:40:33;;;;;;;10.68;3.65;;;;;;;12.26;78.02;102409.22;5083478;28;20165;-70
2023/05/29 07:42:58;;;;;;;10.73;2.08;;;;;;;12.41;78.77;102420.09;5083344;28;20020;-70
2023/05/29 07:45:23;;;;;;;10.60;2.15;;;;;;;12.43;76.36;102413.56;5083413;28;20024;-70
2023/05/29 07:47:49;;;;;;;11.45;3.35;;;;;;;12.42;76.72;102414.56;5081586;28;20405;-69
2023/05/29 07:50:14;;;;;;;7.43;2.88;;;;;;;12.44;76.20;102422.41;5083831;28;20099;-69
2023/05/29 07:52:41;;;;;;;13.35;2.60;;;;;;;12.47;77.63;102411.38;5083045;28;20090;-70
2023/05/29 07:55:08;;;;;;;10.43;3.35;;;;;;;12.56;77.23;102413.03;5097979;28;20495;-68
2023/05/29 07:57:33;;;;;;;7.18;1.55;;;;;;;12.62;77.37;102406.16;5082913;28;20093;-67
2023/05/29 07:59:59;;;;;;;8.07;1.95;;;;;;;12.83;75.69;102425.16;5081016;28;20023;-70
2023/05/29 08:02:24;;;;;;;6.97;2.72;;;;;;;13.00;75.14;102415.22;5083092;28;20019;-69
2023/05/29 08:04:50;;;;;;;7.65;1.83;;;;;;;13.08;73.12;102422.38;5083160;28;20051;-68
2023/05/29 08:07:15;;;;;;;12.25;2.90;;;;;;;13.13;72.70;102423.53;5082258;28;20024;-68
2023/05/29 08:09:40;;;;;;;8.48;2.50;;;;;;;13.18;73.94;102423.00;5082433;28;20447;-68
2023/05/29 08:12:06;;;;;;;14.82;2.38;;;;;;;13.40;73.06;102426.78;5081058;28;20035;-68
2023/05/29 08:14:32;;;;;;;7.18;2.60;;;;;;;14.23;69.90;102420.59;5082736;28;20024;-68
2023/05/29 08:16:57;;;;;;;12.35;2.97;;;;;;;15.82;63.45;102420.16;5083301;28;20353;-68
2023/05/29 08:19:23;;;;;;;8.48;2.38;;;;;;;17.08;58.95;102421.88;5082686;28;20035;-68
2023/05/29 08:21:48;;;;;;;6.45;2.20;;;;;;;17.84;55.47;102428.06;5083079;28;20020;-68
2023/05/29 08:24:14;;;;;;;12.73;3.63;;;;;;;18.97;54.51;102430.66;5082701;28;20492;-68
2023/05/29 08:26:39;;;;;;;6.15;1.58;;;;;;;19.37;51.84;102434.00;5083299;28;20047;-68
2023/05/29 08:29:05;;;;;;;11.20;3.20;;;;;;;19.35;50.35;102422.56;5083539;28;20055;-68
2023/05/29 08:31:31;;;;;;;11.00;2.10;;;;;;;18.95;50.66;102438.16;5082708;28;20044;-68
2023/05/29 08:33:56;;;;;;;10.38;2.28;;;;;;;18.43;52.38;102426.41;5082594;28;20056;-68
2023/05/29 08:36:22;;;;;;;12.00;2.28;;;;;;;18.27;52.27;102425.78;5085004;28;20055;-68
2023/05/29 08:38:50;;;;;;;15.50;2.83;;;;;;;17.90;53.03;102428.09;5087106;28;20024;-68
2023/05/29 08:41:30;;;;;;;5.60;2.08;;;;;;;17.92;54.27;102423.31;5087041;28;20138;-68
2023/05/29 08:43:58;;;;;;;16.23;2.85;;;;;;;18.42;52.34;102425.59;5086664;28;20016;-68
2023/05/29 08:46:24;;;;;;;7.63;2.30;;;;;;;18.66;51.78;102434.06;5086640;28;20027;-68
2023/05/29 08:48:50;;;;;;;7.32;2.72;;;;;;;19.23;50.04;102429.69;5086882;28;20028;-69
2023/05/29 08:51:20;;;;;;;9.13;2.17;;;;;;;19.43;49.72;102435.00;5087425;28;20067;-68
2023/05/29 08:53:46;;;;;;;7.80;2.17;;;;;;;20.07;48.25;102433.97;5086236;28;20036;-68
2023/05/29 08:56:12;;;;;;;14.00;2.70;;;;;;;20.35;46.98;102440.78;5086575;28;20035;-68
2023/05/29 08:58:37;;;;;;;7.68;1.90;;;;;;;19.80;46.91;102443.34;5086880;28;20020;-71
2023/05/29 09:01:04;;;;;;;10.15;2.70;;;;;;;18.49;50.38;102431.78;5086696;28;20157;-68
2023/05/29 09:03:29;;;;;;;10.73;2.35;;;;;;;17.51;52.85;102435.06;5085409;28;20055;-68
2023/05/29 09:05:59;;;;;;;12.95;2.30;;;;;;;16.73;55.48;102437.19;5086956;28;20530;-68
2023/05/29 09:08:26;;;;;;;11.90;2.50;;;;;;;16.42;56.62;102448.38;5086260;28;20024;-69
2023/05/29 09:10:51;;;;;;;7.72;2.13;;;;;;;16.12;56.60;102448.59;5085992;28;20072;-69
2023/05/29 09:13:17;;;;;;;6.47;2.13;;;;;;;15.81;59.21;102426.56;5085131;28;20363;-69
2023/05/29 09:15:45;;;;;;;11.20;1.70;;;;;;;15.63;58.28;102449.31;5086318;28;20032;-70
2023/05/29 09:18:11;;;;;;;4.70;1.80;;;;;;;15.49;60.68;102448.34;5085335;28;20024;-68
2023/05/29 09:20:36;;;;;;;8.00;2.08;;;;;;;15.43;59.76;102448.28;5086447;28;20044;-70
2023/05/29 09:23:04;;;;;;;7.80;2.78;;;;;;;15.34;61.50;102444.88;5086577;28;20027;-69
2023/05/29 09:25:32;;;;;;;7.70;3.00;;;;;;;15.47;60.86;102438.81;5084906;28;20152;-69
2023/05/29 09:27:59;;;;;;;9.93;2.65;;;;;;;15.59;60.41;102434.59;5086066;28;20012;-69
2023/05/29 09:30:41;;;;;;;8.45;2.55;;;;;;;15.69;59.50;102443.22;5086092;28;20406;-69
2023/05/29 09:33:12;;;;;;;8.40;2.63;;;;;;;15.52;60.09;102447.97;5085577;28;20059;-69
2023/05/29 09:35:43;;;;;;;8.85;2.20;;;;;;;15.47;60.38;102428.06;5085923;28;20028;-69
2023/05/29 09:38:10;;;;;;;10.40;3.10;;;;;;;15.54;60.95;102440.56;5086404;28;20028;-69
2023/05/29 09:40:38;;;;;;;7.20;2.38;;;;;;;15.66;61.82;102437.34;5086061;28;20466;-69
2023/05/29 09:43:11;;;;;;;5.72;2.58;;;;;;;15.85;61.21;102431.38;5086073;28;20122;-69
2023/05/29 09:45:38;;;;;;;9.48;2.05;;;;;;;15.98;61.54;102434.19;5085216;28;20055;-69
2023/05/29 09:48:05;;;;;;;10.48;2.33;;;;;;;16.01;59.83;102432.97;5084264;28;20043;-69
2023/05/29 09:50:33;;;;;;;7.68;2.60;;;;;;;15.88;59.06;102431.00;5086007;28;20120;-69
2023/05/29 09:53:01;;;;;;;10.38;2.38;;;;;;;15.87;60.23;102432.00;5085184;28;20395;-70
2023/05/29 09:55:28;;;;;;;12.07;2.65;;;;;;;15.85;60.70;102426.00;5085552;28;20023;-70
2023/05/29 09:57:54;;;;;;;14.23;3.65;;;;;;;15.73;60.95;102414.09;5085184;28;20085;-69
2023/05/29 10:00:21;;;;;;;9.40;3.17;;;;;;;15.91;59.58;102425.22;5085530;28;20558;-69
2023/05/29 10:02:48;;;;;;;11.65;3.03;;;;;;;16.00;61.15;102428.59;5085645;28;20028;-69
2023/05/29 10:05:15;;;;;;;5.90;2.30;;;;;;;16.11;61.12;102435.31;5085829;28;20020;-68
2023/05/29 10:07:48;;;;;;;9.68;2.92;;;;;;;16.11;61.09;102438.00;5085512;28;20479;-68
2023/05/29 10:10:14;;;;;;;14.90;3.95;;;;;;;16.10;60.33;102425.59;5084657;28;20107;-68
2023/05/29 10:12:53;;;;;;;8.68;2.65;;;;;;;16.11;62.38;102424.53;5085355;28;20161;-69
2023/05/29 10:15:19;;;;;;;23.92;3.67;;;;;;;16.25;60.80;102429.03;5085567;28;20028;-69
2023/05/29 10:18:05;;;;;;;7.03;2.50;;;;;;;16.41;60.68;102430.56;5085307;28;20023;-69
2023/05/29 10:20:32;;;;;;;8.45;2.00;;;;;;;16.50;59.50;102421.31;5085188;28;20040;-69
2023/05/29 10:23:00;;;;;;;8.52;1.88;;;;;;;16.54;58.86;102419.06;5084580;28;20020;-68
2023/05/29 10:25:27;;;;;;;8.90;2.53;;;;;;;16.51;59.58;102414.06;5084233;28;20028;-68
2023/05/29 10:27:55;;;;;;;7.53;2.30;;;;;;;16.60;59.64;102405.63;5084843;28;20483;-68
2023/05/29 10:30:35;;;;;;;10.07;3.13;;;;;;;16.76;57.89;102419.81;5084622;28;20055;-69
2023/05/29 10:33:15;;;;;;;7.88;2.33;;;;;;;16.62;58.24;102414.34;5085078;28;20395;-68
2023/05/29 10:35:48;;;;;;;13.95;3.08;;;;;;;16.55;58.85;102418.03;5082711;28;20467;-69
2023/05/29 10:38:16;;;;;;;10.85;3.13;;;;;;;16.69;57.11;102417.09;5084925;28;20460;-69
2023/05/29 10:40:43;;;;;;;4.22;1.88;;;;;;;16.70;57.96;102407.97;5085186;28;20046;-68
2023/05/29 10:43:10;;;;;;;9.63;2.83;;;;;;;16.69;56.58;102398.22;5084537;28;20032;-68
2023/05/29 10:45:39;;;;;;;9.80;3.08;;;;;;;16.71;56.59;102408.78;5083513;28;20032;-69
2023/05/29 10:48:07;;;;;;;5.60;2.25;;;;;;;16.72;58.53;102410.47;5084135;28;20081;-69
2023/05/29 10:50:41;;;;;;;8.20;2.22;;;;;;;16.89;57.53;102410.97;5084945;28;20122;-68
2023/05/29 10:53:10;;;;;;;12.52;2.80;;;;;;;17.00;56.86;102415.78;5084058;28;20329;-69
2023/05/29 10:55:40;;;;;;;5.32;2.90;;;;;;;16.99;56.33;102409.56;5084074;28;20028;-69
2023/05/29 10:58:11;;;;;;;15.55;2.97;;;;;;;17.13;55.99;102415.03;5084258;28;20051;-69
2023/05/29 11:00:41;;;;;;;6.55;2.60;;;;;;;17.12;56.77;102407.97;5084353;28;20024;-68
2023/05/29 11:03:07;;;;;;;9.02;2.10;;;;;;;17.04;55.03;102404.41;5083944;28;20024;-68
2023/05/29 11:05:33;;;;;;;5.45;1.98;;;;;;;17.12;54.80;102408.81;5082024;28;20050;-69
2023/05/29 11:08:02;;;;;;;8.80;2.38;;;;;;;17.14;56.65;102414.00;5084259;28;20055;-68
2023/05/29 11:10:52;;;;;;;9.07;2.35;;;;;;;17.12;56.16;102394.50;5083894;28;20024;-69
2023/05/29 11:13:30;;;;;;;8.30;2.25;;;;;;;17.26;56.68;102401.56;5083812;28;20064;-69
2023/05/29 11:16:09;;;;;;;5.18;2.08;;;;;;;17.27;55.63;102405.94;5083776;28;20047;-69
2023/05/29 11:18:46;;;;;;;10.13;2.58;;;;;;;17.22;55.83;102395.78;5083399;28;20103;-69